Time;durP1;ratioP1;P1;durP2;ratioP2;P2;SDS_P1;SDS_P2;PMS_P1;PMS_P2;Temp;Humidity;BMP_temperature;BMP_pressure;BME280_temperature;BME280_humidity;BME280_pressure;Samples;Min_cycle;Max_cycle;Signal;HPM_P1;HPM_P2
2022/01/09 00:01:10;;;;;;;;;;;;;;;-0.42;59.14;99174.47;4442846;32;19977;-92
2022/01/09 00:03:35;;;;;;;;;;;;;;;-0.47;59.14;99165.94;4443773;32;20028;-91
2022/01/09 00:06:00;;;;;;;;;;;;;;;-0.49;59.15;99165.06;4456548;32;19996;-89
2022/01/09 00:08:26;;;;;;;;;;;;;;;-0.51;59.14;99156.53;4443810;32;19994;-90
2022/01/09 00:10:52;;;;;;;;;;;;;;;-0.46;59.14;99164.25;4443429;32;19979;-90
2022/01/09 00:13:17;;;;;;;;;;;;;;;-0.56;59.14;99160.78;4444127;32;20003;-91
2022/01/09 00:15:43;;;;;;;;;;;;;;;-0.45;59.14;99160.84;4443399;32;19988;-93
2022/01/09 00:18:08;;;;;;;;;;;;;;;-0.68;59.13;99166.72;4445110;32;19984;-92
2022/01/09 00:20:33;;;;;;;;;;;;;;;-0.80;59.13;99156.44;4457554;32;20025;-91
2022/01/09 00:22:58;;;;;;;;;;;;;;;-0.73;59.12;99154.75;4442391;32;20004;-90
2022/01/09 00:25:24;;;;;;;;;;;;;;;-0.66;59.13;99146.28;4443138;32;20018;-89
2022/01/09 00:27:49;;;;;;;;;;;;;;;-0.63;59.13;99138.63;4442985;32;20002;-89
2022/01/09 00:30:15;;;;;;;;;;;;;;;-0.68;59.13;99132.66;4442912;32;19973;-89
2022/01/09 00:32:40;;;;;;;;;;;;;;;-0.79;59.13;99136.84;4442982;32;19993;-89
2022/01/09 00:35:05;;;;;;;;;;;;;;;-0.72;59.12;99120.69;4442615;32;20009;-90
2022/01/09 00:37:31;;;;;;;;;;;;;;;-0.68;59.13;99123.28;4442587;32;20049;-90
2022/01/09 00:39:56;;;;;;;;;;;;;;;-0.80;59.13;99123.22;4442638;32;20009;-89
2022/01/09 00:42:21;;;;;;;;;;;;;;;-0.78;59.13;99125.78;4442171;32;20011;-90
2022/01/09 00:44:46;;;;;;;;;;;;;;;-0.91;59.12;99129.16;4455795;32;20087;-90
2022/01/09 00:47:12;;;;;;;;;;;;;;;-0.93;59.12;99132.56;4442742;32;19992;-90
2022/01/09 00:49:37;;;;;;;;;;;;;;;-0.96;59.11;99127.41;4455447;32;20340;-90
2022/01/09 00:52:02;;;;;;;;;;;;;;;-0.99;59.11;99127.41;4455119;32;19988;-89
2022/01/09 00:54:28;;;;;;;;;;;;;;;-1.05;59.11;99122.28;4442352;32;20003;-89
2022/01/09 00:56:53;;;;;;;;;;;;;;;-1.03;59.11;99114.63;4442491;32;19981;-89
2022/01/09 00:59:18;;;;;;;;;;;;;;;-1.11;59.10;99109.50;4442548;32;19977;-90
2022/01/09 01:01:43;;;;;;;;;;;;;;;-0.99;59.11;99106.12;4454948;32;20008;-91
2022/01/09 01:04:09;;;;;;;;;;;;;;;-0.93;59.12;99101.06;4455527;32;20032;-91
2022/01/09 01:06:34;;;;;;;;;;;;;;;-0.89;59.12;99101.91;4442683;32;20250;-90
2022/01/09 01:08:59;;;;;;;;;;;;;;;-0.62;59.13;99096.88;4441994;32;20261;-90
2022/01/09 01:11:24;;;;;;;;;;;;;;;-0.79;59.13;99089.16;4442471;32;20108;-90
2022/01/09 01:13:50;;;;;;;;;;;;;;;-0.63;59.14;99080.69;4441960;32;20017;-90
2022/01/09 01:16:15;;;;;;;;;;;;;;;-0.85;59.12;99080.63;4442749;32;20013;-90
2022/01/09 01:18:43;;;;;;;;;;;;;;;-0.90;59.12;99077.22;4442887;32;20252;-91
2022/01/09 01:21:09;;;;;;;;;;;;;;;-0.78;59.13;99077.25;4443400;32;20000;-91
2022/01/09 01:23:34;;;;;;;;;;;;;;;-0.64;59.14;99071.31;4442774;32;19985;-90
2022/01/09 01:26:01;;;;;;;;;;;;;;;-0.65;59.14;99072.19;4456012;32;20348;-92
2022/01/09 01:28:27;;;;;;;;;;;;;;;-0.64;59.14;99066.22;4443342;32;19976;-90
2022/01/09 01:30:52;;;;;;;;;;;;;;;-0.56;59.14;99055.13;4442827;32;20389;-91
2022/01/09 01:33:17;;;;;;;;;;;;;;;-0.62;59.13;99046.63;4455786;32;19996;-91
2022/01/09 01:35:43;;;;;;;;;;;;;;;-0.60;59.13;99036.41;4455261;32;19968;-89
2022/01/09 01:38:08;;;;;;;;;;;;;;;-0.58;59.13;99038.94;4455724;32;20324;-89
2022/01/09 01:40:33;;;;;;;;;;;;;;;-0.55;59.13;99037.25;4442831;32;20008;-90
2022/01/09 01:42:58;;;;;;;;;;;;;;;-0.72;59.12;99038.91;4444354;32;20344;-90
2022/01/09 01:45:24;;;;;;;;;;;;;;;-0.62;59.13;99033.00;4443493;32;20015;-92
2022/01/09 01:47:49;;;;;;;;;;;;;;;-0.66;59.13;99029.59;4443404;32;19995;-91
2022/01/09 01:50:14;;;;;;;;;;;;;;;-0.69;59.13;99031.28;4442527;32;20005;-90
2022/01/09 01:52:44;;;;;;;;;;;;;;;-0.77;59.12;99031.25;4442589;32;19986;-90
2022/01/09 01:55:10;;;;;;;;;;;;;;;-0.90;59.12;99029.53;4443284;32;19999;-90
2022/01/09 01:57:35;;;;;;;;;;;;;;;-0.98;59.11;99029.50;4443708;32;19973;-91
2022/01/09 02:00:01;;;;;;;;;;;;;;;-1.07;59.11;99023.53;4455994;32;20261;-91
2022/01/09 02:02:26;;;;;;;;;;;;;;;-1.02;59.12;99022.69;4442909;32;20023;-91
2022/01/09 02:04:52;;;;;;;;;;;;;;;-1.07;59.11;99021.81;4442705;32;20028;-91
2022/01/09 02:07:17;;;;;;;;;;;;;;;-1.11;59.10;99016.72;4442659;32;20019;-91
2022/01/09 02:09:43;;;;;;;;;;;;;;;-1.09;59.10;99015.84;4443106;32;20101;-92
2022/01/09 02:12:08;;;;;;;;;;;;;;;-1.29;59.10;99010.69;4443390;32;19996;-91
2022/01/09 02:14:34;;;;;;;;;;;;;;;-1.38;59.08;99004.72;4443207;32;20000;-91
2022/01/09 02:17:00;;;;;;;;;;;;;;;-1.25;59.09;99006.44;4455936;32;20025;-91
2022/01/09 02:19:26;;;;;;;;;;;;;;;-1.26;59.10;99014.94;4442853;32;19997;-91
2022/01/09 02:21:52;;;;;;;;;;;;;;;-1.40;59.09;98996.19;4443132;32;20636;-92
2022/01/09 02:24:18;;;;;;;;;;;;;;;-1.43;59.09;99002.09;4456070;32;19997;-92
2022/01/09 02:26:43;;;;;;;;;;;;;;;-1.35;59.09;99003.00;4457062;32;19999;-92
2022/01/09 02:29:08;;;;;;;;;;;;;;;-1.38;59.08;98991.94;4443734;32;19997;-92
2022/01/09 02:31:34;;;;;;;;;;;;;;;-1.35;59.09;98991.94;4443862;32;20106;-92
2022/01/09 02:33:59;;;;;;;;;;;;;;;-1.40;59.09;98996.19;4443815;32;20021;-91
2022/01/09 02:36:24;;;;;;;;;;;;;;;-1.65;59.08;98995.25;4444225;32;20343;-89
2022/01/09 02:38:49;;;;;;;;;;;;;;;-1.54;59.08;98993.56;4454501;32;19984;-89
2022/01/09 02:41:15;;;;;;;;;;;;;;;-1.66;59.08;98996.91;4454304;32;20328;-88
2022/01/09 02:43:40;;;;;;;;;;;;;;;-1.70;59.07;98992.63;4441059;32;20037;-89
2022/01/09 02:46:15;;;;;;;;;;;;;;;-1.76;59.06;98986.66;4468768;32;19993;-87
2022/01/09 02:48:40;;;;;;;;;;;;;;;-1.62;59.07;98979.94;4456112;32;20351;-88
2022/01/09 02:51:13;;;;;;;;;;;;;;;-1.71;59.07;98984.97;4443028;32;20000;-88
2022/01/09 02:53:39;;;;;;;;;;;;;;;-1.87;59.06;98978.97;4456927;32;19987;-89
2022/01/09 02:56:05;;;;;;;;;;;;;;;-1.97;59.05;98984.84;4470242;32;19985;-88
2022/01/09 02:58:31;;;;;;;;;;;;;;;-1.96;59.05;98978.91;4470253;32;19995;-87
2022/01/09 03:00:56;;;;;;;;;;;;;;;-2.01;59.05;98983.12;4442566;32;19988;-88
2022/01/09 03:03:22;;;;;;;;;;;;;;;-2.02;59.05;98978.88;4442825;32;20004;-88
2022/01/09 03:05:47;;;;;;;;;;;;;;;-2.24;59.04;98981.28;4443052;32;20059;-88
2022/01/09 03:08:12;;;;;;;;;;;;;;;-2.27;59.03;98978.72;4455747;32;20021;-87
2022/01/09 03:10:37;;;;;;;;;;;;;;;-2.40;59.02;98966.72;4455975;32;20011;-87
2022/01/09 03:13:05;;;;;;;;;;;;;;;-2.36;59.03;98972.72;4456003;32;20592;-89
2022/01/09 03:15:30;;;;;;;;;;;;;;;-2.44;59.03;98969.25;4443102;32;19977;-88
2022/01/09 03:17:55;;;;;;;;;;;;;;;-2.49;59.03;98964.13;4456014;32;20015;-88
2022/01/09 03:20:21;;;;;;;;;;;;;;;-2.38;59.03;98970.13;4442718;32;19976;-88
2022/01/09 03:22:47;;;;;;;;;;;;;;;-2.47;59.03;98963.28;4455586;32;20068;-87
2022/01/09 03:25:12;;;;;;;;;;;;;;;-2.53;59.02;98960.69;4455559;32;19987;-86
2022/01/09 03:27:38;;;;;;;;;;;;;;;-2.50;59.03;98952.22;4455667;32;20430;-90
2022/01/09 03:30:04;;;;;;;;;;;;;;;-2.61;59.02;98957.22;4443649;32;20040;-90
2022/01/09 03:32:35;;;;;;;;;;;;;;;-2.65;59.01;98954.63;4443799;32;19985;-89
2022/01/09 03:35:00;;;;;;;;;;;;;;;-2.72;59.01;98952.88;4444019;32;19977;-90
2022/01/09 03:37:26;;;;;;;;;;;;;;;-2.63;59.01;98952.94;4456657;32;20025;-88
2022/01/09 03:39:52;;;;;;;;;;;;;;;-2.77;59.01;98952.88;4443618;32;19981;-89
2022/01/09 03:42:17;;;;;;;;;;;;;;;-2.79;59.00;98955.41;4457429;32;19991;-91
2022/01/09 03:44:42;;;;;;;;;;;;;;;-2.62;59.01;98962.31;4444028;32;19976;-91
2022/01/09 03:47:07;;;;;;;;;;;;;;;-2.71;59.01;98958.00;4444413;32;20001;-91
2022/01/09 03:49:33;;;;;;;;;;;;;;;-2.92;59.00;98957.81;4444355;32;20012;-92
2022/01/09 03:51:59;;;;;;;;;;;;;;;-2.90;59.00;98961.22;4444237;32;19999;-91
2022/01/09 03:54:24;;;;;;;;;;;;;;;-2.80;59.01;98960.47;4444517;32;19968;-93
2022/01/09 03:56:49;;;;;;;;;;;;;;;-3.15;58.98;98957.59;4445127;32;20359;-91
2022/01/09 03:59:15;;;;;;;;;;;;;;;-3.13;58.99;98963.53;4445209;32;19992;-91
2022/01/09 04:01:40;;;;;;;;;;;;;;;-3.22;58.98;98956.69;4445620;32;19989;-94
2022/01/09 04:04:06;;;;;;;;;;;;;;;-3.19;58.99;98950.78;4444482;32;20281;-90
2022/01/09 04:06:31;;;;;;;;;;;;;;;-3.26;58.98;98939.69;4443448;32;19984;-91
2022/01/09 04:08:58;;;;;;;;;;;;;;;-3.21;58.98;98938.03;4445321;32;20032;-95
2022/01/09 04:11:27;;;;;;;;;;;;;;;-3.18;58.99;98932.97;4445851;32;20002;-93
2022/01/09 04:13:53;;;;;;;;;;;;;;;-3.14;58.99;98926.22;4446100;32;19988;-93
2022/01/09 04:16:18;;;;;;;;;;;;;;;-3.07;58.99;98922.91;4445539;32;20033;-93
2022/01/09 04:18:43;;;;;;;;;;;;;;;-3.11;58.99;98926.22;4445519;32;19980;-92
2022/01/09 04:21:08;;;;;;;;;;;;;;;-3.08;58.99;98918.63;4445862;32;20000;-92
2022/01/09 04:23:34;;;;;;;;;;;;;;;-2.89;59.00;98920.50;4445537;32;19981;-92
2022/01/09 04:25:59;;;;;;;;;;;;;;;-3.15;58.98;98921.97;4445426;32;20318;-92
2022/01/09 04:28:24;;;;;;;;;;;;;;;-2.89;59.00;98919.63;4445740;32;20001;-93
2022/01/09 04:30:49;;;;;;;;;;;;;;;-3.11;58.99;98918.59;4445511;32;19985;-93
2022/01/09 04:33:18;;;;;;;;;;;;;;;-3.02;58.99;98916.16;4445344;32;19977;-93
2022/01/09 04:35:43;;;;;;;;;;;;;;;-3.24;58.98;98919.34;4445312;32;20626;-93
2022/01/09 04:38:09;;;;;;;;;;;;;;;-3.54;58.96;98925.81;4445582;32;20030;-93
2022/01/09 04:40:35;;;;;;;;;;;;;;;-3.70;58.96;98921.41;4445240;32;20321;-92
2022/01/09 04:43:02;;;;;;;;;;;;;;;-3.56;58.96;98919.84;4458615;32;19977;-92
2022/01/09 04:45:29;;;;;;;;;;;;;;;-3.48;58.96;98912.31;4445662;32;20487;-93
2022/01/09 04:47:55;;;;;;;;;;;;;;;-3.44;58.97;98912.34;4445411;32;20007;-94
2022/01/09 04:50:24;;;;;;;;;;;;;;;-3.41;58.98;98912.38;4445965;32;20093;-94
2022/01/09 04:52:53;;;;;;;;;;;;;;;-3.38;58.97;98901.38;4445828;32;20590;-93
2022/01/09 04:55:18;;;;;;;;;;;;;;;-3.40;58.97;98909.00;4445816;32;20372;-95
2022/01/09 04:57:43;;;;;;;;;;;;;;;-3.43;58.96;98915.75;4445540;32;21311;-94
2022/01/09 05:00:09;;;;;;;;;;;;;;;-3.52;58.96;98908.88;4445631;32;21792;-93
2022/01/09 05:02:34;;;;;;;;;;;;;;;-3.43;58.96;98911.50;4445402;32;20310;-93
2022/01/09 05:05:00;;;;;;;;;;;;;;;-3.56;58.97;98909.66;4445126;32;20328;-93
2022/01/09 05:07:25;;;;;;;;;;;;;;;-3.58;58.96;98915.56;4444638;32;20011;-91
2022/01/09 05:09:50;;;;;;;;;;;;;;;-3.49;58.96;98910.59;4443403;32;19999;-92
2022/01/09 05:12:21;;;;;;;;;;;;;;;-3.53;58.96;98908.88;4444883;32;20026;-90
2022/01/09 05:14:46;;;;;;;;;;;;;;;-3.43;58.97;98910.66;4444641;32;20028;-92
2022/01/09 05:17:12;;;;;;;;;;;;;;;-3.38;58.98;98914.09;4444668;32;19989;-91
2022/01/09 05:19:37;;;;;;;;;;;;;;;-3.44;58.97;98914.91;4445030;32;20035;-92
2022/01/09 05:22:02;;;;;;;;;;;;;;;-3.43;58.96;98919.16;4444689;32;19968;-94
2022/01/09 05:24:28;;;;;;;;;;;;;;;-3.50;58.97;98911.44;4444807;32;20023;-93
2022/01/09 05:26:54;;;;;;;;;;;;;;;-3.51;58.97;98908.03;4444301;32;20008;-93
2022/01/09 05:29:19;;;;;;;;;;;;;;;-3.28;58.97;98913.38;4457921;32;19953;-92
2022/01/09 05:31:45;;;;;;;;;;;;;;;-3.15;58.98;98911.78;4443205;32;19977;-89
2022/01/09 05:34:11;;;;;;;;;;;;;;;-3.36;58.97;98916.66;4455057;32;20050;-88
2022/01/09 05:36:36;;;;;;;;;;;;;;;-3.42;58.97;98910.69;4455120;32;19981;-89
2022/01/09 05:39:02;;;;;;;;;;;;;;;-3.60;58.96;98912.16;4455287;32;19988;-91
2022/01/09 05:41:27;;;;;;;;;;;;;;;-3.74;58.95;98912.88;4443562;32;19981;-91
2022/01/09 05:43:52;;;;;;;;;;;;;;;-3.64;58.96;98911.28;4443623;32;19985;-91
2022/01/09 05:46:18;;;;;;;;;;;;;;;-3.75;58.95;98903.56;4444496;32;19988;-95
2022/01/09 05:48:43;;;;;;;;;;;;;;;-3.75;58.95;98908.63;4442796;32;20313;-90
2022/01/09 05:51:08;;;;;;;;;;;;;;;-3.83;58.95;98912.75;4455508;32;20079;-90
2022/01/09 05:53:33;;;;;;;;;;;;;;;-3.81;58.95;98905.16;4455348;32;19985;-90
2022/01/09 05:55:58;;;;;;;;;;;;;;;-3.82;58.95;98898.34;4443528;32;20000;-91
2022/01/09 05:58:24;;;;;;;;;;;;;;;-3.86;58.94;98894.06;4443336;32;19999;-92
2022/01/09 06:00:49;;;;;;;;;;;;;;;-3.97;58.94;98888.03;4441611;32;20390;-87
2022/01/09 06:03:14;;;;;;;;;;;;;;;-3.94;58.93;98893.13;4454544;32;20018;-87
2022/01/09 06:05:39;;;;;;;;;;;;;;;-4.04;58.94;98897.25;4441619;32;20115;-87
2022/01/09 06:08:05;;;;;;;;;;;;;;;-4.14;58.92;98906.44;4440893;32;26618;-86
2022/01/09 06:10:30;;;;;;;;;;;;;;;-4.24;58.92;98899.56;4455008;32;20358;-88
2022/01/09 06:12:55;;;;;;;;;;;;;;;-4.25;58.92;98899.53;4441782;32;19996;-89
2022/01/09 06:15:21;;;;;;;;;;;;;;;-4.24;58.92;98899.56;4441732;32;20035;-86
2022/01/09 06:17:46;;;;;;;;;;;;;;;-4.19;58.93;98900.47;4468277;32;20064;-86
2022/01/09 06:20:12;;;;;;;;;;;;;;;-4.14;58.93;98903.91;4454449;32;20034;-87
2022/01/09 06:22:37;;;;;;;;;;;;;;;-4.20;58.93;98898.75;4454547;32;20377;-89
2022/01/09 06:25:03;;;;;;;;;;;;;;;-4.17;58.93;98892.84;4441935;32;19981;-90
2022/01/09 06:27:28;;;;;;;;;;;;;;;-4.15;58.92;98902.19;4442034;32;19981;-88
2022/01/09 06:29:53;;;;;;;;;;;;;;;-4.12;58.93;98887.00;4442457;32;20502;-91
2022/01/09 06:32:18;;;;;;;;;;;;;;;-4.26;58.92;98897.78;4443208;32;20051;-93
2022/01/09 06:34:44;;;;;;;;;;;;;;;-4.17;58.93;98903.87;4443446;32;19984;-90
2022/01/09 06:37:12;;;;;;;;;;;;;;;-4.29;58.91;98902.84;4442289;32;20028;-89
2022/01/09 06:39:37;;;;;;;;;;;;;;;-4.30;58.91;98902.00;4442242;32;20048;-89
2022/01/09 06:42:03;;;;;;;;;;;;;;;-4.50;58.90;98908.47;4455404;32;20008;-92
2022/01/09 06:44:28;;;;;;;;;;;;;;;-4.44;58.90;98908.59;4443629;32;20381;-91
2022/01/09 06:46:53;;;;;;;;;;;;;;;-4.53;58.91;98916.91;4442234;32;23573;-90
2022/01/09 06:49:18;;;;;;;;;;;;;;;-4.47;58.91;98906.00;4442912;32;19992;-93
2022/01/09 06:51:44;;;;;;;;;;;;;;;-4.41;58.92;98904.41;4442909;32;19989;-90
2022/01/09 06:54:09;;;;;;;;;;;;;;;-4.37;58.91;98902.75;4442300;32;20266;-90
2022/01/09 06:56:34;;;;;;;;;;;;;;;-4.25;58.92;98892.78;4442521;32;19977;-91
2022/01/09 06:59:00;;;;;;;;;;;;;;;-4.19;58.93;98897.06;4442888;32;19992;-93
2022/01/09 07:01:25;;;;;;;;;;;;;;;-4.33;58.92;98896.87;4443752;32;20056;-93
2022/01/09 07:03:50;;;;;;;;;;;;;;;-4.13;58.93;98900.53;4443568;32;20329;-95
2022/01/09 07:06:16;;;;;;;;;;;;;;;-4.11;58.93;98903.09;4454676;32;20018;-90
2022/01/09 07:08:41;;;;;;;;;;;;;;;-4.14;58.92;98903.91;4440751;32;20029;-89
2022/01/09 07:11:06;;;;;;;;;;;;;;;-4.05;58.93;98898.06;4440342;32;23622;-89
2022/01/09 07:13:32;;;;;;;;;;;;;;;-3.98;58.94;98909.19;4453609;32;20004;-89
2022/01/09 07:15:57;;;;;;;;;;;;;;;-3.95;58.94;98905.00;4440705;32;20020;-89
2022/01/09 07:18:23;;;;;;;;;;;;;;;-3.91;58.95;98905.88;4440570;32;20082;-89
2022/01/09 07:20:49;;;;;;;;;;;;;;;-3.84;58.95;98902.56;4453526;32;19985;-88
2022/01/09 07:23:14;;;;;;;;;;;;;;;-3.70;58.96;98906.13;4453033;32;20067;-89
2022/01/09 07:25:39;;;;;;;;;;;;;;;-3.46;58.97;98900.47;4440380;32;20360;-86
2022/01/09 07:28:04;;;;;;;;;;;;;;;-3.35;58.97;98903.94;4440181;32;20039;-87
2022/01/09 07:30:30;;;;;;;;;;;;;;;-3.38;58.97;98903.06;4452925;32;20677;-87
2022/01/09 07:32:55;;;;;;;;;;;;;;;-3.35;58.97;98903.09;4454368;32;19997;-88
2022/01/09 07:35:20;;;;;;;;;;;;;;;-3.15;58.99;98894.81;4442605;32;20004;-88
2022/01/09 07:37:46;;;;;;;;;;;;;;;-3.09;58.99;98886.38;4455591;32;20027;-86
2022/01/09 07:40:11;;;;;;;;;;;;;;;-2.99;58.99;98884.78;4469489;32;21811;-87
2022/01/09 07:42:36;;;;;;;;;;;;;;;-3.02;58.99;98885.59;4442576;32;20007;-87
2022/01/09 07:45:06;;;;;;;;;;;;;;;-2.84;59.00;98878.13;4469958;32;20009;-88
2022/01/09 07:47:31;;;;;;;;;;;;;;;-2.73;59.02;98878.19;4456057;32;19964;-89
2022/01/09 07:49:57;;;;;;;;;;;;;;;-2.52;59.02;98874.91;4455489;32;20585;-87
2022/01/09 07:52:22;;;;;;;;;;;;;;;-2.50;59.02;98874.09;4455613;32;20021;-89
2022/01/09 07:54:47;;;;;;;;;;;;;;;-2.47;59.03;98875.78;4469674;32;20338;-89
2022/01/09 07:57:12;;;;;;;;;;;;;;;-2.37;59.03;98869.91;4455342;32;19965;-87
2022/01/09 07:59:38;;;;;;;;;;;;;;;-2.30;59.04;98879.31;4442639;32;20005;-87
2022/01/09 08:02:03;;;;;;;;;;;;;;;-2.27;59.04;98873.34;4442528;32;20322;-88
2022/01/09 08:04:28;;;;;;;;;;;;;;;-2.10;59.05;98876.84;4442414;32;19988;-87
2022/01/09 08:06:53;;;;;;;;;;;;;;;-2.00;59.05;98881.13;4455503;32;20003;-88
2022/01/09 08:09:19;;;;;;;;;;;;;;;-1.93;59.06;98876.91;4455374;32;20331;-89
2022/01/09 08:11:44;;;;;;;;;;;;;;;-2.02;59.05;98876.88;4455428;32;20011;-89
2022/01/09 08:14:09;;;;;;;;;;;;;;;-1.81;59.07;98866.75;4469531;32;20367;-87
2022/01/09 08:16:35;;;;;;;;;;;;;;;-1.78;59.07;98864.22;4454520;32;20726;-88
2022/01/09 08:19:01;;;;;;;;;;;;;;;-1.64;59.07;98865.13;4455322;32;20011;-87
2022/01/09 08:21:30;;;;;;;;;;;;;;;-1.50;59.08;98862.56;4442331;32;19993;-89
2022/01/09 08:23:55;;;;;;;;;;;;;;;-1.49;59.08;98863.44;4442356;32;19999;-88
2022/01/09 08:26:21;;;;;;;;;;;;;;;-1.27;59.10;98857.50;4442296;32;19996;-88
2022/01/09 08:28:48;;;;;;;;;;;;;;;-1.27;59.10;98854.94;4455260;32;20328;-86
2022/01/09 08:31:14;;;;;;;;;;;;;;;-1.34;59.09;98856.66;4442462;32;20048;-88
2022/01/09 08:33:39;;;;;;;;;;;;;;;-1.36;59.09;98865.16;4469420;32;19989;-88
2022/01/09 08:36:04;;;;;;;;;;;;;;;-1.23;59.10;98861.75;4455228;32;20294;-88
2022/01/09 08:38:30;;;;;;;;;;;;;;;-1.05;59.11;98866.03;4455283;32;20005;-89
2022/01/09 08:40:55;;;;;;;;;;;;;;;-1.08;59.11;98871.16;4455306;32;20330;-89
2022/01/09 08:43:20;;;;;;;;;;;;;;;-0.89;59.12;98882.22;4441719;32;19996;-88
2022/01/09 08:45:45;;;;;;;;;;;;;;;-0.88;59.12;98884.78;4441139;32;23791;-89
2022/01/09 08:48:10;;;;;;;;;;;;;;;-0.72;59.12;98880.50;4455270;32;20004;-89
2022/01/09 08:50:36;;;;;;;;;;;;;;;-0.60;59.13;98869.41;4441769;32;26711;-88
2022/01/09 08:53:01;;;;;;;;;;;;;;;-0.62;59.14;98866.88;4441944;32;20288;-88
2022/01/09 08:55:26;;;;;;;;;;;;;;;-0.44;59.14;98874.50;4455174;32;20041;-88
2022/01/09 08:57:51;;;;;;;;;;;;;;;-0.35;59.15;98864.25;4441808;32;20845;-89
2022/01/09 09:00:18;;;;;;;;;;;;;;;-0.13;59.17;98864.19;4442176;32;20038;-88
2022/01/09 09:02:43;;;;;;;;;;;;;;;-0.22;59.15;98866.78;4455637;32;19985;-90
2022/01/09 09:05:09;;;;;;;;;;;;;;;-0.18;59.16;98868.47;4442477;32;19969;-90
2022/01/09 09:07:34;;;;;;;;;;;;;;;-0.09;59.16;98861.59;4442583;32;20262;-90
2022/01/09 09:10:03;;;;;;;;;;;;;;;-0.24;59.16;98856.53;4442364;32;19993;-90
2022/01/09 09:12:29;;;;;;;;;;;;;;;-0.16;59.15;98856.53;4443216;32;19977;-90
2022/01/09 09:14:54;;;;;;;;;;;;;;;-0.09;59.16;98858.19;4442018;32;20031;-89
2022/01/09 09:17:20;;;;;;;;;;;;;;;0.09;59.18;98863.25;4441766;32;20009;-89
2022/01/09 09:19:45;;;;;;;;;;;;;;;0.22;59.17;98867.44;4442181;32;20467;-88
2022/01/09 09:22:10;;;;;;;;;;;;;;;0.25;59.18;98864.91;4455803;32;20011;-90
2022/01/09 09:24:35;;;;;;;;;;;;;;;0.43;59.19;98878.44;4442646;32;20012;-89
2022/01/09 09:27:01;;;;;;;;;;;;;;;0.56;59.20;98874.97;4441292;32;31382;-89
2022/01/09 09:29:26;;;;;;;;;;;;;;;0.66;59.22;98876.59;4441952;32;19989;-91
2022/01/09 09:31:51;;;;;;;;;;;;;;;0.86;59.22;98873.91;4442408;32;19996;-91
2022/01/09 09:34:16;;;;;;;;;;;;;;;0.96;59.22;98869.56;4441405;32;31538;-92
2022/01/09 09:36:42;;;;;;;;;;;;;;;0.89;59.22;98872.16;4455364;32;20341;-90
2022/01/09 09:39:08;;;;;;;;;;;;;;;1.04;59.24;98871.22;4441925;32;20063;-90
2022/01/09 09:41:34;;;;;;;;;;;;;;;1.25;59.24;98871.91;4442367;32;20386;-90
2022/01/09 09:43:59;;;;;;;;;;;;;;;1.44;59.25;98866.59;4441905;32;19992;-89
2022/01/09 09:46:24;;;;;;;;;;;;;;;1.54;59.26;98865.63;4455328;32;20026;-90
2022/01/09 09:48:50;;;;;;;;;;;;;;;1.66;59.27;98863.81;4442639;32;19996;-89
2022/01/09 09:51:15;;;;;;;;;;;;;;;1.89;59.27;98866.94;4442141;32;19980;-89
2022/01/09 09:53:41;;;;;;;;;;;;;;;1.86;59.28;98864.44;4454734;32;19973;-91
2022/01/09 09:56:06;;;;;;;;;;;;;;;1.91;59.28;98862.69;4441153;32;29513;-90
2022/01/09 09:58:31;;;;;;;;;;;;;;;2.21;59.29;98870.88;4441783;32;20037;-91
2022/01/09 10:00:56;;;;;;;;;;;;;;;2.35;59.30;98871.53;4441551;32;24154;-90
2022/01/09 10:03:28;;;;;;;;;;;;;;;2.51;59.32;98864.47;4441860;32;19999;-90
2022/01/09 10:05:54;;;;;;;;;;;;;;;2.59;59.32;98866.06;4442297;32;20051;-91
2022/01/09 10:08:19;;;;;;;;;;;;;;;2.44;59.31;98874.84;4454853;32;20001;-90
2022/01/09 10:10:45;;;;;;;;;;;;;;;2.31;59.31;98870.72;4442025;32;20266;-90
2022/01/09 10:13:11;;;;;;;;;;;;;;;2.60;59.32;98872.03;4441413;32;19981;-89
2022/01/09 10:15:49;;;;;;;;;;;;;;;2.76;59.33;98873.53;4454933;32;20012;-89
2022/01/09 10:18:34;;;;;;;;;;;;;;;2.88;59.34;98872.53;4454740;32;20049;-89
2022/01/09 10:21:26;;;;;;;;;;;;;;;3.07;59.35;98868.75;4454435;32;19976;-89
2022/01/09 10:24:00;;;;;;;;;;;;;;;3.13;59.35;98868.69;4464193;32;19991;-89
2022/01/09 10:26:25;;;;;;;;;;;;;;;3.33;59.37;98865.78;4453531;32;19992;-89
2022/01/09 10:28:50;;;;;;;;;;;;;;;3.14;59.35;98867.81;4440943;32;20015;-90
2022/01/09 10:31:16;;;;;;;;;;;;;;;3.41;59.37;98855.38;4440620;32;20234;-89
2022/01/09 10:33:41;;;;;;;;;;;;;;;3.20;59.36;98860.00;4440726;32;19984;-91
2022/01/09 10:36:07;;;;;;;;;;;;;;;3.21;59.35;98853.97;4439521;32;27144;-89
2022/01/09 10:38:33;;;;;;;;;;;;;;;2.87;59.33;98861.38;4454305;32;20092;-90
2022/01/09 10:40:59;;;;;;;;;;;;;;;3.10;59.35;98849.91;4439923;32;20531;-89
2022/01/09 10:43:24;;;;;;;;;;;;;;;3.14;59.35;98844.69;4440678;32;20056;-92
2022/01/09 10:45:56;;;;;;;;;;;;;;;3.04;59.34;98840.53;4453383;32;20352;-89
2022/01/09 10:48:22;;;;;;;;;;;;;;;3.12;59.35;98831.00;4454335;32;19995;-90
2022/01/09 10:50:47;;;;;;;;;;;;;;;3.31;59.37;98821.22;4440712;32;20023;-91
2022/01/09 10:53:17;;;;;;;;;;;;;;;3.07;59.34;98823.34;4441224;32;19988;-91
2022/01/09 10:55:43;;;;;;;;;;;;;;;3.35;59.36;98817.75;4453225;32;20037;-89
2022/01/09 10:58:18;;;;;;;;;;;;;;;3.35;59.36;98820.31;4440996;32;19989;-90
2022/01/09 11:00:44;;;;;;;;;;;;;;;3.29;59.36;98816.09;4440191;32;19993;-88
2022/01/09 11:03:09;;;;;;;;;;;;;;;3.35;59.36;98815.16;4453085;32;19988;-89
2022/01/09 11:05:35;;;;;;;;;;;;;;;3.31;59.37;98816.94;4439992;32;23987;-90
2022/01/09 11:08:00;;;;;;;;;;;;;;;3.34;59.37;98810.91;4441971;32;20000;-89
2022/01/09 11:10:28;;;;;;;;;;;;;;;3.29;59.35;98810.97;4442607;32;20000;-90
2022/01/09 11:12:54;;;;;;;;;;;;;;;3.43;59.37;98805.59;4442433;32;20363;-90
2022/01/09 11:15:22;;;;;;;;;;;;;;;3.62;59.38;98806.09;4455873;32;20020;-90
2022/01/09 11:17:48;;;;;;;;;;;;;;;3.64;59.38;98801.75;4443272;32;20034;-89
2022/01/09 11:20:13;;;;;;;;;;;;;;;3.78;59.39;98802.31;4443039;32;20318;-90
2022/01/09 11:22:38;;;;;;;;;;;;;;;3.44;59.36;98807.28;4455666;32;20260;-89
2022/01/09 11:25:08;;;;;;;;;;;;;;;3.45;59.37;98808.12;4441963;32;20009;-88
2022/01/09 11:27:39;;;;;;;;;;;;;;;3.49;59.37;98802.03;4442656;32;20360;-90
2022/01/09 11:30:05;;;;;;;;;;;;;;;3.63;59.38;98795.78;4455546;32;20072;-89
2022/01/09 11:32:34;;;;;;;;;;;;;;;3.74;59.38;98802.41;4470006;32;20005;-89
2022/01/09 11:35:02;;;;;;;;;;;;;;;3.70;59.38;98802.47;4470225;32;19985;-89
2022/01/09 11:37:40;;;;;;;;;;;;;;;3.97;59.39;98811.37;4443077;32;20032;-90
2022/01/09 11:40:19;;;;;;;;;;;;;;;3.94;59.39;98798.56;4442459;32;19990;-90
2022/01/09 11:43:01;;;;;;;;;;;;;;;4.03;59.40;98802.69;4442408;32;20001;-89
2022/01/09 11:45:45;;;;;;;;;;;;;;;4.21;59.41;98794.56;4455408;32;19989;-89
2022/01/09 11:48:11;;;;;;;;;;;;;;;3.98;59.39;98789.06;4455139;32;20524;-88
2022/01/09 11:50:42;;;;;;;;;;;;;;;4.22;59.41;98783.38;4442435;32;19981;-89
2022/01/09 11:53:07;;;;;;;;;;;;;;;4.30;59.42;98785.81;4441768;32;19987;-89
2022/01/09 11:55:41;;;;;;;;;;;;;;;4.26;59.41;98790.19;4454753;32;19981;-89
2022/01/09 11:58:10;;;;;;;;;;;;;;;4.37;59.42;98789.09;4455348;32;19989;-89
2022/01/09 12:00:42;;;;;;;;;;;;;;;4.14;59.41;98782.72;4442622;32;19985;-89
2022/01/09 12:03:25;;;;;;;;;;;;;;;4.27;59.42;98780.72;4442364;32;19995;-89
2022/01/09 12:06:10;;;;;;;;;;;;;;;4.45;59.42;98771.72;4455077;32;20001;-89
2022/01/09 12:08:57;;;;;;;;;;;;;;;4.43;59.43;98764.03;4468902;32;19992;-90
2022/01/09 12:11:42;;;;;;;;;;;;;;;4.04;59.40;98767.50;4469578;32;19977;-89
2022/01/09 12:14:07;;;;;;;;;;;;;;;4.19;59.40;98762.00;4469561;32;20781;-89
2022/01/09 12:16:49;;;;;;;;;;;;;;;4.32;59.42;98753.97;4454928;32;31592;-90
2022/01/09 12:19:33;;;;;;;;;;;;;;;4.63;59.43;98748.94;4442592;32;20023;-89
2022/01/09 12:21:58;;;;;;;;;;;;;;;4.61;59.43;98740.41;4454831;32;20027;-89
2022/01/09 12:24:39;;;;;;;;;;;;;;;4.67;59.44;98739.41;4454156;32;26069;-89
2022/01/09 12:27:38;;;;;;;;;;;;;;;4.67;59.44;98743.69;4454009;32;20072;-89
2022/01/09 12:30:03;;;;;;;;;;;;;;;4.90;59.45;98739.66;4425472;32;20438;-90
2022/01/09 12:32:43;;;;;;;;;;;;;;;4.82;59.45;98739.03;4441427;32;19996;-89
2022/01/09 12:35:15;;;;;;;;;;;;;;;4.90;59.45;98736.25;4441732;32;19976;-87
2022/01/09 12:37:47;;;;;;;;;;;;;;;4.81;59.45;98744.22;4454250;32;20009;-89
2022/01/09 12:40:16;;;;;;;;;;;;;;;4.70;59.44;98744.47;4454410;32;19989;-89
2022/01/09 12:42:43;;;;;;;;;;;;;;;4.80;59.45;98750.28;4454546;32;19992;-90
2022/01/09 12:45:08;;;;;;;;;;;;;;;4.99;59.46;98748.94;4454490;32;20103;-88
2022/01/09 12:47:38;;;;;;;;;;;;;;;4.79;59.45;98739.12;4454438;32;20035;-87